Time;durP1;ratioP1;P1;durP2;ratioP2;P2;SDS_P1;SDS_P2;PMS_P1;PMS_P2;Temp;Humidity;BMP_temperature;BMP_pressure;BME280_temperature;BME280_humidity;BME280_pressure;Samples;Min_cycle;Max_cycle;Signal;HPM_P1;HPM_P2
2021/09/05 00:01:38;;;;;;;13.20;7.90;;;;;;;12.10;86.05;101435.72;4980538;28;20073;-88
2021/09/05 00:04:05;;;;;;;10.95;7.15;;;;;;;12.07;86.31;101434.84;4962221;28;20133;-87
2021/09/05 00:06:33;;;;;;;11.35;6.93;;;;;;;12.07;86.62;101439.22;4983219;28;20103;-90
2021/09/05 00:09:00;;;;;;;12.95;8.55;;;;;;;12.06;87.16;101432.25;4982461;28;20042;-88
2021/09/05 00:11:27;;;;;;;14.68;7.40;;;;;;;12.04;87.10;101437.47;4967552;28;20046;-90
2021/09/05 00:13:54;;;;;;;10.32;7.35;;;;;;;12.04;86.85;101442.72;4982150;28;20197;-87
2021/09/05 00:16:21;;;;;;;9.20;6.75;;;;;;;12.02;86.98;101447.13;4962542;28;20057;-87
2021/09/05 00:18:48;;;;;;;11.10;8.02;;;;;;;12.02;87.33;101451.47;4971956;28;20049;-88
2021/09/05 00:21:15;;;;;;;11.82;7.97;;;;;;;11.99;87.48;101436.59;4984891;28;20148;-89
2021/09/05 00:23:43;;;;;;;7.78;6.18;;;;;;;12.00;87.27;101435.72;4981058;28;20053;-89
2021/09/05 00:26:10;;;;;;;11.75;8.23;;;;;;;11.96;87.57;101430.50;4988390;28;20399;-87
2021/09/05 00:28:37;;;;;;;10.77;7.00;;;;;;;11.91;87.67;101434.00;4981322;28;20065;-88
2021/09/05 00:31:04;;;;;;;12.93;7.57;;;;;;;11.85;88.03;101430.47;4998463;28;20509;-87
2021/09/05 00:33:30;;;;;;;12.40;7.85;;;;;;;11.84;88.17;101431.38;4963821;28;20042;-87
2021/09/05 00:35:57;;;;;;;11.07;7.82;;;;;;;11.79;88.19;101436.63;4991443;28;20699;-86
2021/09/05 00:38:24;;;;;;;13.57;7.82;;;;;;;11.77;88.66;101440.13;5008871;28;20045;-89
2021/09/05 00:40:51;;;;;;;13.93;8.07;;;;;;;11.74;88.57;101444.47;4975054;28;20092;-89
2021/09/05 00:43:18;;;;;;;9.65;7.07;;;;;;;11.71;88.96;101452.38;4978157;28;20072;-90
2021/09/05 00:45:45;;;;;;;11.48;7.40;;;;;;;11.70;89.38;101449.75;4981355;28;20066;-87
2021/09/05 00:48:12;;;;;;;12.77;7.20;;;;;;;11.67;89.51;101449.75;4970340;28;20046;-88
2021/09/05 00:50:39;;;;;;;15.25;8.10;;;;;;;11.62;89.53;101448.91;4962017;28;20041;-88
2021/09/05 00:53:06;;;;;;;11.18;7.28;;;;;;;11.58;89.99;101448.88;4941497;28;20641;-87
2021/09/05 00:55:35;;;;;;;14.27;8.30;;;;;;;11.54;89.60;101448.91;4953474;28;20109;-88
2021/09/05 00:58:02;;;;;;;10.43;7.70;;;;;;;11.52;90.59;101453.25;4951515;28;20042;-86
2021/09/05 01:00:31;;;;;;;11.48;7.63;;;;;;;11.48;90.71;101452.38;4977325;28;20042;-90
2021/09/05 01:02:58;;;;;;;16.63;7.85;;;;;;;11.48;90.81;101448.88;4965291;28;20053;-88
2021/09/05 01:05:25;;;;;;;10.85;8.02;;;;;;;11.47;90.67;101452.38;4957958;28;20062;-90
2021/09/05 01:07:52;;;;;;;13.13;7.90;;;;;;;11.44;90.54;101452.38;4963040;28;20049;-88
2021/09/05 01:10:18;;;;;;;15.32;9.02;;;;;;;11.39;91.29;101457.63;4945755;28;20630;-89
2021/09/05 01:12:45;;;;;;;13.48;7.70;;;;;;;11.37;91.53;101456.75;4952483;28;20169;-87
2021/09/05 01:15:12;;;;;;;15.65;8.80;;;;;;;11.34;91.42;101452.38;4964195;28;20049;-89
2021/09/05 01:17:40;;;;;;;12.07;8.30;;;;;;;11.31;91.64;101449.75;4952617;28;20416;-92
2021/09/05 01:20:10;;;;;;;16.30;8.90;;;;;;;11.31;91.49;101457.59;4953958;28;20054;-90
2021/09/05 01:22:38;;;;;;;11.25;7.25;;;;;;;11.31;91.54;101454.97;4969021;28;20065;-88
2021/09/05 01:25:05;;;;;;;13.13;8.93;;;;;;;11.30;91.88;101463.72;4974901;28;20547;-89
2021/09/05 01:27:33;;;;;;;12.23;8.05;;;;;;;11.30;91.86;101466.34;4969770;28;20050;-88
2021/09/05 01:30:00;;;;;;;12.57;7.00;;;;;;;11.28;92.08;101465.47;4956944;28;20580;-87
2021/09/05 01:32:27;;;;;;;13.80;8.55;;;;;;;11.25;92.17;101455.88;4954655;28;20788;-88
2021/09/05 01:34:54;;;;;;;11.98;6.97;;;;;;;11.23;92.25;101454.97;4956278;28;20038;-89
2021/09/05 01:37:21;;;;;;;13.50;8.63;;;;;;;11.24;92.22;101458.50;4965457;28;20136;-88
2021/09/05 01:39:48;;;;;;;14.73;7.43;;;;;;;11.22;92.45;101457.59;4956666;28;20050;-89
2021/09/05 01:42:14;;;;;;;10.05;8.13;;;;;;;11.19;92.56;101463.72;4969477;28;20156;-88
2021/09/05 01:44:41;;;;;;;12.48;7.38;;;;;;;11.17;92.67;101459.34;4968939;28;20139;-90
2021/09/05 01:47:08;;;;;;;11.30;7.45;;;;;;;11.13;92.91;101461.06;4968045;28;20524;-87
2021/09/05 01:49:34;;;;;;;15.77;8.07;;;;;;;11.08;93.11;101462.81;4973867;28;20071;-87
2021/09/05 01:52:01;;;;;;;12.93;8.27;;;;;;;11.04;93.11;101471.53;4984086;28;20041;-90
2021/09/05 01:54:28;;;;;;;11.98;7.50;;;;;;;10.99;93.25;101471.53;5002844;28;20041;-89
2021/09/05 01:56:54;;;;;;;14.00;8.27;;;;;;;10.93;93.39;101475.00;4994048;28;20125;-88
2021/09/05 01:59:21;;;;;;;14.80;8.10;;;;;;;10.91;93.89;101478.50;4989754;28;20153;-90
2021/09/05 02:01:48;;;;;;;14.65;8.73;;;;;;;10.88;93.88;101475.88;4980694;28;20111;-90
2021/09/05 02:04:14;;;;;;;14.10;9.38;;;;;;;10.86;94.22;101475.88;4999779;28;20540;-86
2021/09/05 02:06:41;;;;;;;16.17;8.80;;;;;;;10.84;94.53;101481.97;4972808;28;20619;-88
2021/09/05 02:09:08;;;;;;;13.40;7.85;;;;;;;10.84;94.42;101479.34;4987155;28;20058;-87
2021/09/05 02:11:35;;;;;;;14.90;8.73;;;;;;;10.81;94.71;101477.59;4986882;28;20155;-88
2021/09/05 02:14:01;;;;;;;15.70;8.32;;;;;;;10.81;94.50;101479.31;4986993;28;20108;-90
2021/09/05 02:16:28;;;;;;;11.43;7.90;;;;;;;10.79;94.52;101484.56;4986774;28;20053;-88
2021/09/05 02:18:55;;;;;;;16.02;8.20;;;;;;;10.78;94.77;101481.94;4988716;28;20054;-90
2021/09/05 02:21:21;;;;;;;10.88;7.65;;;;;;;10.75;95.17;101481.09;4976325;28;20073;-88
2021/09/05 02:23:49;;;;;;;14.10;8.25;;;;;;;10.73;95.05;101480.19;4983885;28;20042;-91
2021/09/05 02:26:16;;;;;;;11.85;6.88;;;;;;;10.72;95.20;101478.44;4983052;28;20108;-91
2021/09/05 02:28:43;;;;;;;16.45;8.40;;;;;;;10.70;95.50;101481.91;4993343;28;20713;-88
2021/09/05 02:31:10;;;;;;;14.70;8.70;;;;;;;10.68;95.27;101478.44;4998308;28;20188;-89
2021/09/05 02:33:36;;;;;;;16.92;8.07;;;;;;;10.64;95.30;101477.53;4982179;28;20080;-88
2021/09/05 02:36:03;;;;;;;16.75;7.95;;;;;;;10.61;95.55;101481.88;4965900;28;20551;-87
2021/09/05 02:38:30;;;;;;;13.23;8.52;;;;;;;10.59;95.62;101490.59;4964974;28;20078;-86
2021/09/05 02:40:57;;;;;;;13.48;9.07;;;;;;;10.59;95.79;101497.59;4999642;28;20053;-90
2021/09/05 02:43:23;;;;;;;16.60;9.65;;;;;;;10.56;96.13;101484.50;5000584;28;20115;-89
2021/09/05 02:45:50;;;;;;;13.52;8.73;;;;;;;10.55;95.69;101480.97;4985734;28;20941;-88
2021/09/05 02:48:17;;;;;;;15.57;9.07;;;;;;;10.55;96.16;101487.97;4989245;28;20058;-88
2021/09/05 02:50:43;;;;;;;11.90;8.20;;;;;;;10.55;96.18;101490.59;4962835;28;20061;-88
2021/09/05 02:53:10;;;;;;;15.00;8.73;;;;;;;10.54;95.99;101489.69;4960910;28;20045;-90
2021/09/05 02:55:37;;;;;;;10.52;8.15;;;;;;;10.54;96.03;101494.06;4967353;28;20073;-90
2021/09/05 02:58:04;;;;;;;13.85;9.25;;;;;;;10.52;96.14;101491.47;4965286;28;20045;-86
2021/09/05 03:00:31;;;;;;;15.50;8.77;;;;;;;10.50;96.06;101484.47;4950371;28;20057;-87
2021/09/05 03:02:58;;;;;;;15.93;8.32;;;;;;;10.50;96.57;101492.31;4951524;28;20045;-86
2021/09/05 03:05:26;;;;;;;11.95;8.13;;;;;;;10.48;96.94;101492.31;4974053;28;20049;-86
2021/09/05 03:07:53;;;;;;;15.77;10.18;;;;;;;10.49;96.88;101493.19;4976028;28;20049;-87
2021/09/05 03:10:20;;;;;;;13.85;9.00;;;;;;;10.48;96.45;101492.31;4972995;28;20515;-88
2021/09/05 03:12:46;;;;;;;14.32;9.77;;;;;;;10.47;96.89;101490.56;4983577;28;20046;-86
2021/09/05 03:15:13;;;;;;;14.18;9.30;;;;;;;10.46;96.44;101490.56;4963031;28;20046;-88
2021/09/05 03:17:40;;;;;;;15.15;8.82;;;;;;;10.42;97.22;101484.41;4966333;28;20042;-88
2021/09/05 03:20:08;;;;;;;18.95;8.43;;;;;;;10.36;96.74;101487.84;4977877;28;20057;-89
2021/09/05 03:22:36;;;;;;;14.68;8.25;;;;;;;10.34;96.70;101486.06;4979043;28;20050;-89
2021/09/05 03:25:03;;;;;;;13.30;7.85;;;;;;;10.30;96.82;101486.94;4971328;28;20104;-89
2021/09/05 03:27:30;;;;;;;20.45;9.25;;;;;;;10.27;97.15;101493.91;4977612;28;21302;-87
2021/09/05 03:29:56;;;;;;;14.35;8.95;;;;;;;10.23;97.29;101486.91;4975958;28;20469;-86
2021/09/05 03:32:27;;;;;;;16.75;8.85;;;;;;;10.20;97.38;101486.88;4955240;28;20034;-88
2021/09/05 03:34:57;;;;;;;12.80;9.02;;;;;;;10.18;97.63;101488.63;4962877;28;20129;-88
2021/09/05 03:37:23;;;;;;;17.75;8.65;;;;;;;10.16;97.47;101487.72;4980103;28;20401;-87
2021/09/05 03:39:50;;;;;;;19.58;9.85;;;;;;;10.12;97.88;101487.69;4958490;28;20692;-88
2021/09/05 03:42:17;;;;;;;11.52;8.82;;;;;;;10.10;97.62;101492.91;4977546;28;20111;-88
2021/09/05 03:44:44;;;;;;;11.95;9.02;;;;;;;10.07;97.81;101490.28;4969361;28;20131;-85
2021/09/05 03:47:12;;;;;;;11.88;8.38;;;;;;;10.07;98.01;101499.00;4965022;28;20164;-87
2021/09/05 03:49:39;;;;;;;15.73;8.77;;;;;;;10.05;97.70;101495.50;4969088;28;20050;-87
2021/09/05 03:52:06;;;;;;;10.27;7.63;;;;;;;10.02;97.61;101497.22;4968935;28;20038;-88
2021/09/05 03:54:33;;;;;;;14.32;7.55;;;;;;;9.96;97.27;101497.19;4946689;28;20050;-88
2021/09/05 03:57:00;;;;;;;13.60;7.55;;;;;;;9.92;97.71;101493.66;4971292;28;20043;-86
2021/09/05 03:59:27;;;;;;;14.30;8.57;;;;;;;9.88;97.99;101492.78;4967101;28;20104;-89
2021/09/05 04:01:54;;;;;;;14.77;7.95;;;;;;;9.85;97.75;101489.25;4967008;28;20113;-90
2021/09/05 04:04:21;;;;;;;12.90;8.02;;;;;;;9.82;98.21;101490.13;4963234;28;20141;-88
2021/09/05 04:06:50;;;;;;;11.63;8.18;;;;;;;9.79;98.20;101495.34;4949948;28;20112;-88
2021/09/05 04:12:00;;;;;;;10.02;7.20;;;;;;;9.76;98.59;101495.28;4971694;28;20053;-89
2021/09/05 04:14:27;;;;;;;11.70;7.07;;;;;;;9.75;98.34;101494.44;4977895;28;20054;-87
2021/09/05 04:16:54;;;;;;;11.88;6.82;;;;;;;9.77;98.59;101495.28;4952062;28;20050;-87
2021/09/05 04:19:21;;;;;;;12.50;7.47;;;;;;;9.76;98.05;101490.97;4955710;28;20049;-89
2021/09/05 04:21:48;;;;;;;18.90;8.40;;;;;;;9.77;98.69;101499.66;4970380;28;20046;-89
2021/09/05 04:24:15;;;;;;;16.02;7.88;;;;;;;9.75;98.62;101494.44;4958166;28;20058;-89
2021/09/05 04:26:41;;;;;;;13.07;7.35;;;;;;;9.77;98.67;101500.53;4980711;28;20040;-88
2021/09/05 04:29:08;;;;;;;12.40;7.60;;;;;;;9.79;98.75;101503.19;4985415;28;20045;-90
2021/09/05 04:31:35;;;;;;;10.48;6.78;;;;;;;9.81;98.08;101506.66;4976294;28;20042;-89
2021/09/05 04:34:01;;;;;;;20.20;8.85;;;;;;;9.82;98.02;101507.56;4985145;28;20042;-89
2021/09/05 04:36:28;;;;;;;13.82;7.85;;;;;;;9.79;98.16;101505.78;4992492;28;20131;-86
2021/09/05 04:38:56;;;;;;;13.43;7.15;;;;;;;9.76;98.04;101513.59;4968659;28;20130;-89
2021/09/05 04:41:22;;;;;;;11.20;7.90;;;;;;;9.76;98.18;101509.25;4948777;28;20053;-89
2021/09/05 04:43:49;;;;;;;13.98;8.25;;;;;;;9.74;98.33;101515.34;4951890;28;20054;-89
2021/09/05 04:46:15;;;;;;;11.23;6.70;;;;;;;9.71;97.96;101515.28;4970281;28;20077;-90
2021/09/05 04:48:45;;;;;;;25.20;9.10;;;;;;;9.68;98.13;101512.66;4963606;28;20049;-88
2021/09/05 04:51:12;;;;;;;14.27;7.82;;;;;;;9.66;98.29;101515.28;4988634;28;20116;-88
2021/09/05 04:53:39;;;;;;;12.10;7.50;;;;;;;9.64;98.69;101516.13;4973973;28;20091;-89
2021/09/05 04:56:06;;;;;;;13.57;7.70;;;;;;;9.62;98.66;101520.44;4988919;28;20795;-89
2021/09/05 04:58:32;;;;;;;11.15;6.90;;;;;;;9.61;98.66;101522.19;4986451;28;20074;-90
2021/09/05 05:01:00;;;;;;;12.65;7.68;;;;;;;9.62;98.63;101529.19;4980341;28;20050;-87
2021/09/05 05:03:26;;;;;;;10.65;7.30;;;;;;;9.62;99.11;101523.94;4978775;28;20042;-87
2021/09/05 05:05:54;;;;;;;14.90;7.22;;;;;;;9.60;98.63;101529.13;5002084;28;20053;-88
2021/09/05 05:08:21;;;;;;;17.13;7.82;;;;;;;9.62;99.10;101531.78;4998286;28;20042;-90
2021/09/05 05:10:51;;;;;;;12.38;7.70;;;;;;;9.62;98.71;101536.13;5001086;28;20572;-88
2021/09/05 05:13:18;;;;;;;9.38;7.07;;;;;;;9.59;99.21;101532.63;4984766;28;21030;-88
2021/09/05 05:15:44;;;;;;;16.02;8.02;;;;;;;9.59;98.99;101534.34;4985562;28;20054;-88
2021/09/05 05:18:14;;;;;;;10.85;7.55;;;;;;;9.62;99.38;101538.75;4988258;28;20041;-88
2021/09/05 05:20:45;;;;;;;11.30;8.07;;;;;;;9.63;99.57;101536.13;4971445;28;20538;-88
2021/09/05 05:23:12;;;;;;;15.82;8.18;;;;;;;9.65;99.48;101544.88;4975631;28;20172;-88
2021/09/05 05:25:39;;;;;;;11.65;8.00;;;;;;;9.66;99.17;101550.97;4988983;28;20042;-89
2021/09/05 05:28:27;;;;;;;10.75;7.40;;;;;;;9.64;99.71;101547.50;5104483;27;20445;-85
2021/09/05 05:30:54;;;;;;;15.63;8.30;;;;;;;9.66;99.45;101554.47;5068837;28;20749;-85
2021/09/05 05:33:21;;;;;;;17.92;8.55;;;;;;;9.67;99.45;101550.97;5039012;28;20041;-85
2021/09/05 05:35:48;;;;;;;13.68;8.15;;;;;;;9.69;99.66;101557.13;5051650;28;20080;-84
2021/09/05 05:38:14;;;;;;;15.90;8.88;;;;;;;9.74;100.00;101567.63;5048191;28;20049;-85
2021/09/05 05:40:41;;;;;;;12.30;8.10;;;;;;;9.75;99.05;101564.13;5053398;28;20262;-85
2021/09/05 05:43:08;;;;;;;14.32;7.88;;;;;;;9.76;99.33;101568.50;5033961;28;20905;-85
2021/09/05 05:45:34;;;;;;;15.13;8.70;;;;;;;9.77;99.71;101573.75;5035305;28;20154;-85
2021/09/05 05:48:01;;;;;;;18.05;9.48;;;;;;;9.77;100.00;101570.25;5050682;28;20535;-85
2021/09/05 05:50:28;;;;;;;13.07;8.65;;;;;;;9.80;100.00;101564.19;5031562;28;20102;-85
2021/09/05 05:52:54;;;;;;;16.08;8.98;;;;;;;9.80;100.00;101565.03;5046775;28;20766;-85
2021/09/05 05:55:23;;;;;;;16.63;9.57;;;;;;;9.82;100.00;101570.31;5048635;28;20051;-85
2021/09/05 05:57:49;;;;;;;16.05;9.60;;;;;;;9.86;100.00;101582.56;5033689;28;20295;-85
2021/09/05 06:00:17;;;;;;;22.63;10.48;;;;;;;9.93;100.00;101579.09;5036821;28;20053;-84
2021/09/05 06:02:43;;;;;;;25.85;11.70;;;;;;;10.04;100.00;101582.69;5033457;28;20051;-85
2021/09/05 06:05:10;;;;;;;29.85;16.45;;;;;;;10.14;100.00;101578.41;5036180;28;20080;-84
2021/09/05 06:07:37;;;;;;;32.65;16.27;;;;;;;10.32;100.00;101582.03;5034566;28;20599;-85
2021/09/05 06:10:04;;;;;;;23.58;12.93;;;;;;;10.47;99.54;101587.41;5052804;28;20049;-85
2021/09/05 06:12:36;;;;;;;28.55;13.10;;;;;;;10.57;98.72;101583.09;5058172;28;20072;-84
2021/09/05 06:15:03;;;;;;;17.15;9.82;;;;;;;10.68;98.35;101588.41;5035327;28;20060;-84
2021/09/05 06:17:39;;;;;;;14.68;9.80;;;;;;;10.72;98.09;101591.03;5051255;28;20136;-85
2021/09/05 06:20:19;;;;;;;20.15;10.93;;;;;;;10.76;98.25;101600.66;5033557;28;20048;-85
2021/09/05 06:22:55;;;;;;;17.05;9.48;;;;;;;10.83;98.45;101596.31;5056651;28;20045;-84
2021/09/05 06:25:22;;;;;;;16.45;10.30;;;;;;;10.92;97.68;101592.88;5054814;28;20048;-85
2021/09/05 06:27:49;;;;;;;16.42;9.75;;;;;;;10.99;97.40;101597.31;5036374;28;20132;-85
2021/09/05 06:30:15;;;;;;;17.83;10.20;;;;;;;11.08;97.24;101594.72;5035063;28;20049;-84
2021/09/05 06:32:42;;;;;;;16.75;9.63;;;;;;;11.18;97.05;101594.75;5029953;28;20048;-85
2021/09/05 06:35:09;;;;;;;15.23;10.05;;;;;;;11.30;96.20;101599.16;5033011;28;20041;-85
2021/09/05 06:37:36;;;;;;;17.60;9.93;;;;;;;11.41;95.76;101603.56;5042940;28;20060;-84
2021/09/05 06:40:06;;;;;;;19.38;9.38;;;;;;;11.53;95.50;101599.22;5036274;28;20045;-84
2021/09/05 06:42:33;;;;;;;17.15;10.40;;;;;;;11.65;94.87;101606.25;5022924;28;20556;-85
2021/09/05 06:44:59;;;;;;;20.27;11.93;;;;;;;11.73;94.46;101607.13;5037083;28;20111;-85
2021/09/05 06:47:26;;;;;;;20.15;12.82;;;;;;;11.83;94.21;101610.66;5034960;28;20075;-85
2021/09/05 06:49:53;;;;;;;22.90;13.35;;;;;;;11.90;93.78;101613.28;5018574;28;20099;-85
2021/09/05 06:52:22;;;;;;;19.70;11.90;;;;;;;12.01;93.31;101608.06;5038848;28;20053;-85
2021/09/05 06:54:49;;;;;;;21.00;11.57;;;;;;;12.17;92.97;101601.06;5034699;28;20056;-85
2021/09/05 06:57:15;;;;;;;25.10;12.75;;;;;;;12.31;92.00;101602.81;5037655;28;20041;-85
2021/09/05 06:59:42;;;;;;;20.40;13.25;;;;;;;12.34;91.76;101600.19;5023050;28;20052;-87
2021/09/05 07:02:11;;;;;;;21.08;12.45;;;;;;;12.31;91.89;101613.31;5053693;28;20135;-85
2021/09/05 07:04:41;;;;;;;23.50;13.27;;;;;;;12.28;92.04;101613.31;5022410;28;20052;-83
2021/09/05 07:07:08;;;;;;;21.38;13.65;;;;;;;12.28;92.33;101613.31;5035158;28;20047;-84
2021/09/05 07:09:34;;;;;;;25.42;13.57;;;;;;;12.43;91.89;101628.19;5021258;28;20108;-85
2021/09/05 07:12:01;;;;;;;23.20;13.27;;;;;;;12.56;91.27;101615.00;5039162;28;20064;-85
2021/09/05 07:14:27;;;;;;;21.50;11.13;;;;;;;12.78;90.60;101614.13;5019547;28;20060;-85
2021/09/05 07:16:54;;;;;;;19.30;11.15;;;;;;;12.93;89.83;101618.44;5048461;28;20044;-85
2021/09/05 07:19:21;;;;;;;17.20;10.68;;;;;;;12.98;89.32;101619.28;5037058;28;20443;-85
2021/09/05 07:21:50;;;;;;;14.80;10.40;;;;;;;12.95;89.01;101617.56;5023232;28;20052;-85
2021/09/05 07:24:17;;;;;;;14.05;10.63;;;;;;;12.90;89.24;101621.94;5022055;28;20778;-85
2021/09/05 07:26:44;;;;;;;17.17;9.10;;;;;;;12.96;89.84;101621.94;5039536;28;20451;-85
2021/09/05 07:29:11;;;;;;;14.82;10.10;;;;;;;13.00;88.76;101621.03;5026311;28;20064;-85
2021/09/05 07:31:38;;;;;;;12.75;9.23;;;;;;;12.95;89.08;101628.06;5026285;28;20045;-85
2021/09/05 07:34:04;;;;;;;12.75;9.13;;;;;;;12.97;89.19;101617.53;5054202;28;20045;-85
2021/09/05 07:36:33;;;;;;;15.00;9.38;;;;;;;13.03;88.92;101626.28;5025240;28;20068;-85
2021/09/05 07:39:00;;;;;;;11.18;8.80;;;;;;;13.09;88.84;101628.03;5040286;28;20045;-85
2021/09/05 07:41:26;;;;;;;14.07;9.02;;;;;;;13.24;88.63;101621.81;5028103;28;20040;-85
2021/09/05 07:43:53;;;;;;;9.57;7.50;;;;;;;13.44;88.04;101631.41;5025231;28;20048;-85
2021/09/05 07:46:20;;;;;;;12.95;9.23;;;;;;;13.61;86.86;101626.03;5040761;28;20069;-84
2021/09/05 07:48:48;;;;;;;11.13;7.88;;;;;;;13.70;86.43;101623.34;5026688;28;20048;-85
2021/09/05 07:51:15;;;;;;;12.52;9.15;;;;;;;13.78;86.03;101623.31;5038808;28;20047;-85
2021/09/05 07:53:42;;;;;;;12.25;8.43;;;;;;;13.84;85.83;101620.63;5039660;28;20052;-85
2021/09/05 07:56:08;;;;;;;13.23;9.82;;;;;;;13.96;85.52;101630.19;5041777;28;20083;-85
2021/09/05 07:58:35;;;;;;;17.52;11.32;;;;;;;14.12;84.86;101631.84;5025609;28;20052;-85
2021/09/05 08:01:02;;;;;;;16.10;9.77;;;;;;;14.16;84.22;101635.34;5029734;28;20094;-84
2021/09/05 08:03:28;;;;;;;13.70;8.68;;;;;;;14.14;83.93;101639.72;5030313;28;20462;-85
2021/09/05 08:06:03;;;;;;;13.82;8.93;;;;;;;14.07;84.68;101641.53;5030837;28;20047;-83
2021/09/05 08:08:30;;;;;;;10.52;8.90;;;;;;;14.13;84.59;101640.59;5017383;28;20045;-84
2021/09/05 08:11:07;;;;;;;21.33;11.60;;;;;;;14.20;84.08;101637.91;5061780;28;20080;-84
2021/09/05 08:17:27;;;;;;;12.10;8.32;;;;;;;14.56;83.31;101646.38;4999863;28;20046;-83
2021/09/05 08:20:11;;;;;;;10.98;8.07;;;;;;;14.80;82.18;101649.69;4984447;28;20636;-84
2021/09/05 08:22:57;;;;;;;11.50;7.27;;;;;;;15.08;81.59;101645.88;5015446;28;20160;-83
2021/09/05 08:27:54;;;;;;;10.25;7.95;;;;;;;15.59;78.60;101638.19;4984518;28;20050;-89
2021/09/05 08:30:22;;;;;;;10.05;8.00;;;;;;;15.83;78.10;101652.81;4960757;28;20057;-88
2021/09/05 08:32:49;;;;;;;10.10;7.50;;;;;;;16.02;76.95;101650.78;4961034;28;20038;-88
2021/09/05 08:35:16;;;;;;;9.02;6.15;;;;;;;16.10;76.45;101660.31;4960322;28;20053;-86
2021/09/05 08:37:43;;;;;;;8.82;7.07;;;;;;;16.13;75.88;101663.78;4959533;28;20058;-86
2021/09/05 08:40:10;;;;;;;9.73;6.57;;;;;;;16.11;75.76;101670.00;4941575;28;20059;-88
2021/09/05 08:42:37;;;;;;;11.43;6.90;;;;;;;16.15;75.79;101671.69;4956504;28;20207;-86
2021/09/05 08:45:21;;;;;;;11.35;7.85;;;;;;;16.19;75.56;101661.06;4938249;28;20046;-86
2021/09/05 08:47:52;;;;;;;8.00;6.00;;;;;;;16.50;74.89;101671.13;4953496;28;20073;-87
2021/09/05 08:50:19;;;;;;;10.13;7.53;;;;;;;16.98;73.13;101667.63;4946936;28;20080;-88
2021/09/05 08:52:48;;;;;;;8.73;7.25;;;;;;;17.45;71.06;101664.03;4963301;28;20050;-86
2021/09/05 08:55:16;;;;;;;11.27;9.70;;;;;;;17.75;69.94;101674.84;4964979;28;20053;-85
2021/09/05 08:57:51;;;;;;;10.63;9.30;;;;;;;17.94;68.84;101672.66;4964528;28;20054;-87
2021/09/05 09:00:25;;;;;;;13.50;10.57;;;;;;;18.09;68.23;101674.97;4975027;28;20065;-84
2021/09/05 09:02:58;;;;;;;13.55;10.93;;;;;;;17.98;67.30;101677.88;4971604;28;20545;-89
2021/09/05 09:05:46;;;;;;;14.77;11.80;;;;;;;17.64;66.71;101677.75;4972914;28;20054;-86
2021/09/05 09:08:18;;;;;;;10.10;9.05;;;;;;;17.48;69.38;101680.72;4967439;28;20048;-86
2021/09/05 09:11:01;;;;;;;10.65;9.55;;;;;;;17.62;68.42;101677.75;4973582;28;20069;-88
2021/09/05 09:13:40;;;;;;;9.93;8.93;;;;;;;17.91;67.49;101680.66;4947251;28;20104;-87
2021/09/05 09:16:15;;;;;;;15.02;10.73;;;;;;;18.29;66.05;101677.13;4959675;28;20050;-87
2021/09/05 09:18:44;;;;;;;16.05;12.43;;;;;;;18.21;66.09;101679.09;4961331;28;20058;-87
2021/09/05 09:21:14;;;;;;;13.05;10.82;;;;;;;18.17;66.31;101674.78;4938955;28;20069;-88
2021/09/05 09:23:41;;;;;;;12.85;11.25;;;;;;;18.25;65.90;101680.78;4956512;28;20050;-88
2021/09/05 09:26:22;;;;;;;14.43;10.70;;;;;;;18.38;65.68;101680.47;4996349;28;20054;-87
2021/09/05 09:28:56;;;;;;;13.98;11.55;;;;;;;18.65;64.77;101678.88;4953524;28;20125;-88
2021/09/05 09:31:30;;;;;;;12.45;11.07;;;;;;;19.18;63.72;101681.00;4942485;28;20477;-87
2021/09/05 09:34:00;;;;;;;12.63;10.55;;;;;;;20.21;60.89;101677.00;4949382;28;20046;-86
2021/09/05 09:36:30;;;;;;;14.40;12.32;;;;;;;21.17;57.42;101667.50;4958267;28;20171;-88
2021/09/05 09:39:10;;;;;;;11.45;10.27;;;;;;;21.39;56.41;101681.72;4953656;28;20564;-88
2021/09/05 09:41:40;;;;;;;10.95;9.90;;;;;;;21.80;55.16;101667.78;4940433;28;20052;-84
2021/09/05 09:44:11;;;;;;;11.43;10.23;;;;;;;22.30;53.63;101667.47;4916696;28;20481;-84
2021/09/05 09:46:40;;;;;;;11.95;9.20;;;;;;;23.36;51.28;101665.56;4955390;28;20050;-84
2021/09/05 09:49:14;;;;;;;12.95;9.23;;;;;;;24.21;48.77;101664.16;4970526;28;20599;-85
2021/09/05 09:51:42;;;;;;;9.82;8.90;;;;;;;24.44;47.71;101663.00;4946697;28;20050;-89
2021/09/05 09:54:09;;;;;;;13.10;10.00;;;;;;;25.10;46.92;101667.56;4944656;28;20046;-88
2021/09/05 09:56:37;;;;;;;8.25;6.68;;;;;;;25.86;44.51;101674.13;4953704;28;22711;-84
2021/09/05 09:59:06;;;;;;;8.63;7.82;;;;;;;26.37;43.60;101664.97;4958537;28;20068;-85
2021/09/05 10:01:36;;;;;;;9.82;7.55;;;;;;;26.49;42.24;101671.41;4958193;28;20058;-86
2021/09/05 10:04:05;;;;;;;7.32;6.60;;;;;;;26.69;42.45;101668.41;4965391;28;20054;-86
2021/09/05 10:06:34;;;;;;;8.38;7.57;;;;;;;27.48;40.84;101666.25;4960310;28;20042;-86
2021/09/05 10:09:07;;;;;;;7.78;7.07;;;;;;;27.78;39.28;101669.69;4959429;28;20049;-88
2021/09/05 10:11:37;;;;;;;7.15;6.45;;;;;;;27.99;39.21;101665.59;4950544;28;20061;-85
2021/09/05 10:14:05;;;;;;;8.07;7.35;;;;;;;27.56;39.21;101674.66;4944784;28;20054;-86
2021/09/05 10:16:33;;;;;;;6.93;6.07;;;;;;;27.45;39.72;101660.19;4962583;28;20053;-90
2021/09/05 10:19:06;;;;;;;7.57;6.85;;;;;;;27.75;38.97;101670.78;4948235;28;20058;-89
2021/09/05 10:21:37;;;;;;;6.80;6.10;;;;;;;28.15;37.98;101667.28;4967044;28;20050;-86
2021/09/05 10:24:08;;;;;;;7.15;6.50;;;;;;;28.02;37.63;101667.25;4940562;28;20602;-88
2021/09/05 10:26:35;;;;;;;7.43;6.18;;;;;;;27.88;38.00;101673.50;4947815;28;20060;-87
2021/09/05 10:29:14;;;;;;;8.23;6.43;;;;;;;27.79;37.14;101666.06;4969943;28;20054;-89
2021/09/05 10:31:45;;;;;;;5.97;5.45;;;;;;;28.18;37.17;101673.31;4965901;28;20042;-85
2021/09/05 10:34:36;;;;;;;6.03;5.40;;;;;;;28.56;35.13;101660.88;4962711;28;20053;-89
2021/09/05 10:37:14;;;;;;;5.47;5.07;;;;;;;29.04;35.35;101660.25;4951127;28;20069;-86
2021/09/05 10:40:14;;;;;;;6.35;5.75;;;;;;;29.07;35.51;101657.34;4944909;28;20587;-89
2021/09/05 10:42:59;;;;;;;6.15;5.07;;;;;;;29.86;34.28;101660.59;4935718;28;20069;-87
2021/09/05 10:45:29;;;;;;;6.70;6.05;;;;;;;30.54;33.66;101662.72;4962306;28;20665;-86
2021/09/05 10:47:59;;;;;;;7.03;6.30;;;;;;;30.40;33.20;101657.50;4954264;28;20101;-89
2021/09/05 10:50:40;;;;;;;6.65;6.15;;;;;;;29.34;34.50;101649.13;4966093;28;20050;-88
2021/09/05 10:53:20;;;;;;;7.72;7.13;;;;;;;28.84;35.19;101656.31;4969590;28;20046;-89
2021/09/05 10:56:14;;;;;;;8.20;7.10;;;;;;;28.57;35.63;101646.44;4973872;28;20046;-88
2021/09/05 10:59:00;;;;;;;7.13;6.53;;;;;;;28.62;35.54;101655.06;4978265;28;20082;-89
2021/09/05 11:01:42;;;;;;;7.40;6.55;;;;;;;29.15;35.02;101646.88;4974778;28;20060;-86
2021/09/05 11:04:12;;;;;;;7.27;6.57;;;;;;;29.46;34.57;101650.06;4964598;28;20107;-89
2021/09/05 11:07:02;;;;;;;7.80;6.95;;;;;;;29.81;34.45;101651.13;4990714;28;20046;-88
2021/09/05 11:09:29;;;;;;;7.40;6.57;;;;;;;30.42;33.33;101658.25;4986911;28;20845;-87
2021/09/05 11:12:23;;;;;;;7.78;7.10;;;;;;;30.53;32.30;101655.59;4970009;28;20056;-90
2021/09/05 11:14:50;;;;;;;7.95;7.20;;;;;;;30.90;32.19;101654.53;4957401;28;20444;-89
2021/09/05 11:17:31;;;;;;;6.90;6.32;;;;;;;31.26;32.40;101652.56;4978314;28;20062;-91
2021/09/05 11:20:16;;;;;;;8.40;7.50;;;;;;;30.21;32.45;101656.22;4956995;28;20035;-86
2021/09/05 11:22:47;;;;;;;8.57;7.68;;;;;;;28.44;35.67;101657.22;4967085;28;20085;-87
2021/09/05 11:25:17;;;;;;;8.82;8.00;;;;;;;27.88;36.88;101658.22;4955517;28;20239;-88
2021/09/05 11:28:08;;;;;;;9.98;7.78;;;;;;;28.81;35.53;101657.38;4961809;28;20054;-90
2021/09/05 11:30:43;;;;;;;9.30;7.38;;;;;;;29.63;34.16;101656.91;4949721;28;20054;-85
2021/09/05 11:33:12;;;;;;;8.07;7.30;;;;;;;30.65;33.20;101651.94;4974453;28;20083;-89
2021/09/05 11:35:43;;;;;;;8.07;7.32;;;;;;;30.97;32.46;101659.31;4942765;28;20173;-89
2021/09/05 11:38:12;;;;;;;9.07;8.20;;;;;;;29.92;33.54;101650.34;4939456;28;20054;-85